Time,TemperatureF,DewpointF,PressureIn,WindDirection,WindDirectionDegrees,WindSpeedMPH,WindSpeedGustMPH,Humidity,HourlyPrecipIn,Conditions,Clouds,dailyrainin,SoftwareType,DateUTC
2013-04-09 05:09:00,31.1,24.8,30.08,SW,225,1.1,1.5,77,0.00,,,0.00,WUHU216TE923,2013-04-09 12:09:00,
2013-04-09 05:14:00,31.1,24.8,30.08,WSW,248,1.2,2.2,77,0.00,,,0.00,WUHU216TE923,2013-04-09 12:14:00,
2013-04-09 05:19:00,31.1,24.8,30.09,SW,225,1.4,2.2,77,0.00,,,0.00,WUHU216TE923,2013-04-09 12:19:00,
2013-04-09 05:24:00,31.1,24.8,30.09,SW,225,1.4,1.6,77,0.00,,,0.00,WUHU216TE923,2013-04-09 12:24:00,
2013-04-09 05:53:00,30.9,23.9,30.10,WSW,248,1.3,1.7,75,0.00,,,0.00,WUHU216TE923,2013-04-09 12:53:00,
2013-04-09 05:58:00,30.9,23.9,30.10,WSW,248,1.4,1.7,75,0.00,,,0.00,WUHU216TE923,2013-04-09 12:58:00,
2013-04-09 06:03:00,30.9,23.9,30.09,SW,225,1.6,1.6,75,0.00,,,0.00,WUHU216TE923,2013-04-09 13:03:00,
2013-04-09 06:08:00,30.9,23.9,30.09,WSW,248,1.4,1.6,75,0.00,,,0.00,WUHU216TE923,2013-04-09 13:08:00,
2013-04-09 06:13:00,30.9,23.9,30.09,WSW,248,1.4,1.6,75,0.00,,,0.00,WUHU216TE923,2013-04-09 13:13:00,
2013-04-09 06:18:00,30.9,23.9,30.11,WSW,248,0.5,1.6,75,0.00,,,0.00,WUHU216TE923,2013-04-09 13:18:00,
2013-04-09 06:23:00,30.9,23.9,30.11,WSW,248,0.5,1.6,75,0.00,,,0.00,WUHU216TE923,2013-04-09 13:23:00,
2013-04-09 06:28:00,30.9,24.3,30.11,SW,225,1.4,1.8,76,0.00,,,0.00,WUHU216TE923,2013-04-09 13:28:00,
2013-04-09 06:33:00,30.9,24.3,30.11,SW,225,1.4,1.8,76,0.00,,,0.00,WUHU216TE923,2013-04-09 13:33:00,
2013-04-09 06:38:00,30.9,24.3,30.11,SW,225,1.0,1.4,76,0.00,,,0.00,WUHU216TE923,2013-04-09 13:38:00,
2013-04-09 06:43:00,30.9,24.3,30.11,SW,225,1.0,1.4,76,0.00,,,0.00,WUHU216TE923,2013-04-09 13:43:00,
2013-04-09 06:48:00,31.1,24.5,30.11,SW,225,0.7,1.1,76,0.00,,,0.00,WUHU216TE923,2013-04-09 13:48:00,
2013-04-09 06:53:00,31.1,24.5,30.11,SW,225,0.7,1.1,76,0.00,,,0.00,WUHU216TE923,2013-04-09 13:53:00,
2013-04-09 06:59:00,31.1,24.5,30.11,WSW,248,0.3,1.4,76,0.00,,,0.00,WUHU216TE923,2013-04-09 13:59:00,
2013-04-09 07:04:00,31.1,24.5,30.11,WSW,248,0.3,1.4,76,0.00,,,0.00,WUHU216TE923,2013-04-09 14:04:00,
2013-04-09 07:09:00,31.1,24.5,30.11,SW,225,0.6,1.1,76,0.00,,,0.00,WUHU216TE923,2013-04-09 14:09:00,
2013-04-09 07:33:00,32.4,25.7,30.12,SW,225,0.3,0.3,76,0.00,,,0.00,WUHU216TE923,2013-04-09 14:33:00,
2013-04-09 07:38:00,32.7,26.0,30.12,SE,135,0.1,0.1,76,0.00,,,0.00,WUHU216TE923,2013-04-09 14:38:00,
2013-04-09 07:43:00,32.7,26.0,30.12,SE,135,0.1,0.1,76,0.00,,,0.00,WUHU216TE923,2013-04-09 14:43:00,
2013-04-09 07:48:00,33.3,26.6,30.12,SSW,203,0.0,0.1,76,0.00,,,0.00,WUHU216TE923,2013-04-09 14:48:00,
2013-04-09 07:53:00,33.3,26.6,30.12,SSW,203,0.0,0.1,76,0.00,,,0.00,WUHU216TE923,2013-04-09 14:53:00,
2013-04-09 07:58:00,34.2,26.8,30.13,WSW,248,0.8,1.3,74,0.00,,,0.00,WUHU216TE923,2013-04-09 14:58:00,
2013-04-09 08:03:00,34.2,26.8,30.13,WSW,248,0.8,1.3,74,0.00,,,0.00,WUHU216TE923,2013-04-09 15:03:00,
2013-04-09 08:08:00,34.7,27.0,30.13,SW,225,1.5,2.8,73,0.00,,,0.00,WUHU216TE923,2013-04-09 15:08:00,
2013-04-09 08:13:00,34.7,27.0,30.13,SW,225,1.5,2.8,73,0.00,,,0.00,WUHU216TE923,2013-04-09 15:13:00,
2013-04-09 08:18:00,35.4,27.0,30.13,SSE,158,1.8,2.8,71,0.00,,,0.00,WUHU216TE923,2013-04-09 15:18:00,
2013-04-09 08:23:00,35.4,27.0,30.13,SSE,158,1.8,2.8,71,0.00,,,0.00,WUHU216TE923,2013-04-09 15:23:00,
2013-04-09 08:28:00,35.6,27.2,30.13,South,180,0.3,2.0,71,0.00,,,0.00,WUHU216TE923,2013-04-09 15:28:00,
2013-04-09 08:33:00,35.6,27.2,30.13,South,180,0.3,2.0,71,0.00,,,0.00,WUHU216TE923,2013-04-09 15:33:00,
2013-04-09 08:38:00,36.3,27.2,30.13,WSW,248,0.5,1.6,69,0.00,,,0.00,WUHU216TE923,2013-04-09 15:38:00,
2013-04-09 08:43:00,36.3,27.2,30.13,WSW,248,0.5,1.6,69,0.00,,,0.00,WUHU216TE923,2013-04-09 15:43:00,
2013-04-09 08:48:00,36.7,27.2,30.13,WNW,293,1.1,2.1,68,0.00,,,0.00,WUHU216TE923,2013-04-09 15:48:00,
2013-04-09 08:53:00,36.7,27.2,30.13,WNW,293,1.1,2.1,68,0.00,,,0.00,WUHU216TE923,2013-04-09 15:53:00,
2013-04-09 08:59:00,37.2,27.7,30.12,SW,225,1.2,3.1,68,0.00,,,0.00,WUHU216TE923,2013-04-09 15:59:00,
2013-04-09 09:04:00,37.2,27.7,30.12,SW,225,1.2,3.1,68,0.00,,,0.00,WUHU216TE923,2013-04-09 16:04:00,
2013-04-09 09:09:00,38.1,27.8,30.12,SSE,158,0.5,2.4,66,0.00,,,0.00,WUHU216TE923,2013-04-09 16:09:00,
2013-04-09 09:14:00,38.1,27.8,30.12,SSE,158,0.5,2.4,66,0.00,,,0.00,WUHU216TE923,2013-04-09 16:14:00,
2013-04-09 09:19:00,38.7,28.0,30.12,SSE,158,0.8,4.0,65,0.00,,,0.00,WUHU216TE923,2013-04-09 16:19:00,
2013-04-09 09:24:00,38.7,28.0,30.12,SSE,158,0.8,4.0,65,0.00,,,0.00,WUHU216TE923,2013-04-09 16:24:00,
2013-04-09 09:29:00,39.2,28.1,30.12,ESE,113,1.4,1.7,64,0.00,,,0.00,WUHU216TE923,2013-04-09 16:29:00,
2013-04-09 09:34:00,39.4,27.9,30.12,SSW,203,2.0,3.0,63,0.00,,,0.00,WUHU216TE923,2013-04-09 16:34:00,
2013-04-09 09:40:00,40.1,28.6,30.12,South,180,1.6,4.1,63,0.00,,,0.00,WUHU216TE923,2013-04-09 16:40:00,
2013-04-09 09:45:00,40.3,28.4,30.12,SE,135,1.3,4.1,62,0.00,,,0.00,WUHU216TE923,2013-04-09 16:45:00,
2013-04-09 09:50:00,40.6,28.3,30.12,SW,225,1.2,1.3,61,0.00,,,0.00,WUHU216TE923,2013-04-09 16:50:00,
2013-04-09 09:55:00,41.2,28.8,30.12,SSE,158,0.7,1.2,61,0.00,,,0.00,WUHU216TE923,2013-04-09 16:55:00,
2013-04-09 10:00:00,41.4,28.6,30.12,SE,135,0.7,1.6,60,0.00,,,0.00,WUHU216TE923,2013-04-09 17:00:00,
2013-04-09 10:05:00,42.1,29.7,30.12,WSW,248,0.5,1.6,61,0.00,,,0.00,WUHU216TE923,2013-04-09 17:05:00,
2013-04-09 10:10:00,42.3,29.9,30.12,SSE,158,0.8,2.4,61,0.00,,,0.00,WUHU216TE923,2013-04-09 17:10:00,
2013-04-09 10:15:00,42.6,29.3,30.12,SSW,203,1.0,2.4,59,0.00,,,0.00,WUHU216TE923,2013-04-09 17:15:00,
2013-04-09 10:20:00,42.8,29.5,30.12,NNE,23,1.1,1.1,59,0.00,,,0.00,WUHU216TE923,2013-04-09 17:20:00,
2013-04-09 10:25:00,42.8,29.1,30.12,SSE,158,0.5,1.1,58,0.00,,,0.00,WUHU216TE923,2013-04-09 17:25:00,
2013-04-09 10:30:00,43.0,29.3,30.12,NE,45,0.3,0.5,58,0.00,,,0.00,WUHU216TE923,2013-04-09 17:30:00,
2013-04-09 10:35:00,43.2,29.5,30.12,SE,135,0.5,1.3,58,0.00,,,0.00,WUHU216TE923,2013-04-09 17:35:00,
2013-04-09 10:40:00,43.3,29.6,30.14,SE,135,0.4,1.3,58,0.00,,,0.00,WUHU216TE923,2013-04-09 17:40:00,
2013-04-09 10:45:00,43.7,29.5,30.14,ESE,113,0.5,1.0,57,0.00,,,0.00,WUHU216TE923,2013-04-09 17:45:00,
2013-04-09 10:50:00,43.7,29.5,30.14,SSW,203,0.5,1.2,57,0.00,,,0.00,WUHU216TE923,2013-04-09 17:50:00,
2013-04-09 10:55:00,43.9,30.1,30.14,SW,225,1.0,2.9,58,0.00,,,0.00,WUHU216TE923,2013-04-09 17:55:00,
2013-04-09 11:00:00,44.2,30.4,30.14,NW,315,1.2,2.9,58,0.00,,,0.00,WUHU216TE923,2013-04-09 18:00:00,
2013-04-09 11:05:00,45.0,30.3,30.14,SE,135,0.8,1.7,56,0.00,,,0.00,WUHU216TE923,2013-04-09 18:05:00,
2013-04-09 11:10:00,45.1,30.4,30.14,ESE,113,0.4,1.7,56,0.00,,,0.00,WUHU216TE923,2013-04-09 18:10:00,
2013-04-09 11:15:00,46.0,30.8,30.14,ESE,113,0.5,2.3,55,0.00,,,0.00,WUHU216TE923,2013-04-09 18:15:00,
2013-04-09 11:20:00,46.4,30.2,30.14,SE,135,0.7,2.3,53,0.00,,,0.00,WUHU216TE923,2013-04-09 18:20:00,
2013-04-09 11:25:00,46.0,28.4,30.14,SE,135,1.5,2.4,50,0.00,,,0.00,WUHU216TE923,2013-04-09 18:25:00,
2013-04-09 11:30:00,45.7,28.1,30.14,ENE,68,1.7,2.8,50,0.00,,,0.00,WUHU216TE923,2013-04-09 18:30:00,
2013-04-09 11:35:00,46.2,29.0,30.14,WSW,248,1.4,2.8,51,0.00,,,0.00,WUHU216TE923,2013-04-09 18:35:00,
2013-04-09 11:40:00,46.6,29.4,30.14,North,0,1.2,1.5,51,0.00,,,0.00,WUHU216TE923,2013-04-09 18:40:00,
2013-04-09 11:45:00,46.9,29.2,30.14,SSE,158,1.1,2.3,50,0.00,,,0.00,WUHU216TE923,2013-04-09 18:45:00,
2013-04-09 11:50:00,47.3,30.1,30.14,West,270,1.4,2.3,51,0.00,,,0.00,WUHU216TE923,2013-04-09 18:50:00,
2013-04-09 11:55:00,47.3,29.0,30.14,ENE,68,1.5,2.4,49,0.00,,,0.00,WUHU216TE923,2013-04-09 18:55:00,
2013-04-09 12:00:00,47.8,30.0,30.14,NNW,338,1.2,2.4,50,0.00,,,0.00,WUHU216TE923,2013-04-09 19:00:00,
2013-04-09 12:05:00,48.2,30.4,30.14,SW,225,1.0,1.4,50,0.00,,,0.00,WUHU216TE923,2013-04-09 19:05:00,
2013-04-09 12:10:00,48.2,30.4,30.14,SW,225,1.0,1.4,50,0.00,,,0.00,WUHU216TE923,2013-04-09 19:10:00,
2013-04-09 12:15:00,48.2,30.4,30.14,SW,225,1.0,1.4,50,0.00,,,0.00,WUHU216TE923,2013-04-09 19:15:00,
2013-04-09 12:20:00,48.2,29.9,30.13,SSW,203,0.8,1.9,49,0.00,,,0.00,WUHU216TE923,2013-04-09 19:20:00,
2013-04-09 12:25:00,48.6,30.2,30.13,SSE,158,0.6,1.9,49,0.00,,,0.00,WUHU216TE923,2013-04-09 19:25:00,
2013-04-09 12:30:00,48.7,30.3,30.13,SSE,158,0.5,0.6,49,0.00,,,0.00,WUHU216TE923,2013-04-09 19:30:00,
2013-04-09 12:35:00,48.6,28.1,30.13,ENE,68,1.0,2.6,45,0.00,,,0.00,WUHU216TE923,2013-04-09 19:35:00,
2013-04-09 12:40:00,48.9,28.4,30.12,NNE,23,1.5,2.8,45,0.00,,,0.00,WUHU216TE923,2013-04-09 19:40:00,
2013-04-09 12:45:00,49.1,28.0,30.12,NE,45,1.2,2.8,44,0.00,,,0.00,WUHU216TE923,2013-04-09 19:45:00,
2013-04-09 12:50:00,49.3,28.2,30.12,SSE,158,1.0,1.2,44,0.00,,,0.00,WUHU216TE923,2013-04-09 19:50:00,
2013-04-09 12:55:00,49.5,27.8,30.12,NW,315,0.6,2.1,43,0.00,,,0.00,WUHU216TE923,2013-04-09 19:55:00,
2013-04-09 13:00:00,49.8,28.1,30.11,NW,315,0.8,2.4,43,0.00,,,0.00,WUHU216TE923,2013-04-09 20:00:00,
2013-04-09 13:05:00,50.4,28.6,30.11,South,180,1.3,2.4,43,0.00,,,0.00,WUHU216TE923,2013-04-09 20:05:00,
2013-04-09 13:10:00,50.5,28.1,30.11,East,90,1.3,3.1,42,0.00,,,0.00,WUHU216TE923,2013-04-09 20:10:00,
2013-04-09 13:15:00,50.7,25.8,30.11,ESE,113,1.4,3.1,38,0.00,,,0.00,WUHU216TE923,2013-04-09 20:15:00,
2013-04-09 13:20:00,50.5,25.6,30.11,NNW,338,1.7,1.7,38,0.00,,,0.00,WUHU216TE923,2013-04-09 20:20:00,
2013-04-09 13:25:00,50.5,24.3,30.11,ENE,68,1.8,2.7,36,0.00,,,0.00,WUHU216TE923,2013-04-09 20:25:00,
2013-04-09 13:30:00,50.5,25.0,30.11,ENE,68,2.0,4.8,37,0.00,,,0.00,WUHU216TE923,2013-04-09 20:30:00,
2013-04-09 13:35:00,50.5,25.0,30.11,ENE,68,2.0,4.8,37,0.00,,,0.00,WUHU216TE923,2013-04-09 20:35:00,
2013-04-09 13:40:00,50.9,25.3,30.11,SE,135,1.8,2.7,37,0.00,,,0.00,WUHU216TE923,2013-04-09 20:40:00,
2013-04-09 13:45:00,51.3,26.3,30.11,ENE,68,1.7,2.4,38,0.00,,,0.00,WUHU216TE923,2013-04-09 20:45:00,
2013-04-09 13:50:00,51.3,26.3,30.11,NW,315,1.6,4.0,38,0.00,,,0.00,WUHU216TE923,2013-04-09 20:50:00,
2013-04-09 13:55:00,51.8,26.1,30.11,North,0,1.9,4.0,37,0.00,,,0.00,WUHU216TE923,2013-04-09 20:55:00,
2013-04-09 14:00:00,52.0,25.6,30.11,NNW,338,2.8,4.2,36,0.00,,,0.00,WUHU216TE923,2013-04-09 21:00:00,
2013-04-09 14:05:00,51.8,25.5,30.11,NE,45,3.2,4.2,36,0.00,,,0.00,WUHU216TE923,2013-04-09 21:05:00,
2013-04-09 14:11:00,51.6,25.3,30.11,NNE,23,2.5,3.2,36,0.00,,,0.00,WUHU216TE923,2013-04-09 21:11:00,
2013-04-09 14:16:00,51.6,25.3,30.11,SE,135,1.8,2.5,36,0.00,,,0.00,WUHU216TE923,2013-04-09 21:16:00,
2013-04-09 14:21:00,52.0,25.0,30.11,NNE,23,1.8,2.7,35,0.00,,,0.00,WUHU216TE923,2013-04-09 21:21:00,
2013-04-09 14:26:00,52.3,23.8,30.11,ENE,68,2.6,4.0,33,0.00,,,0.00,WUHU216TE923,2013-04-09 21:26:00,
2013-04-09 14:31:00,52.0,23.5,30.11,NE,45,2.7,5.0,33,0.00,,,0.00,WUHU216TE923,2013-04-09 21:31:00,
2013-04-09 14:36:00,52.2,23.7,30.11,ENE,68,2.0,5.0,33,0.00,,,0.00,WUHU216TE923,2013-04-09 21:36:00,
2013-04-09 14:41:00,52.0,23.5,30.10,ENE,68,1.7,3.2,33,0.00,,,0.00,WUHU216TE923,2013-04-09 21:41:00,
2013-04-09 14:46:00,52.2,23.7,30.10,ESE,113,2.0,2.7,33,0.00,,,0.00,WUHU216TE923,2013-04-09 21:46:00,
2013-04-09 14:51:00,52.7,24.2,30.10,WSW,248,2.3,2.7,33,0.00,,,0.00,WUHU216TE923,2013-04-09 21:51:00,
2013-04-09 14:56:00,53.2,25.3,30.10,NE,45,2.3,2.3,34,0.00,,,0.00,WUHU216TE923,2013-04-09 21:56:00,
2013-04-09 15:01:00,53.4,24.8,30.10,SW,225,1.4,2.3,33,0.00,,,0.00,WUHU216TE923,2013-04-09 22:01:00,
2013-04-09 15:06:00,53.4,24.8,30.10,NNE,23,1.1,1.9,33,0.00,,,0.00,WUHU216TE923,2013-04-09 22:06:00,
2013-04-09 15:12:00,53.2,24.6,30.10,West,270,1.9,1.9,33,0.00,,,0.00,WUHU216TE923,2013-04-09 22:12:00,
2013-04-09 15:17:00,52.9,24.3,30.10,NE,45,1.9,2.0,33,0.00,,,0.00,WUHU216TE923,2013-04-09 22:17:00,
2013-04-09 15:22:00,53.1,24.5,30.10,NNE,23,1.8,2.9,33,0.00,,,0.00,WUHU216TE923,2013-04-09 22:22:00,
2013-04-09 15:27:00,53.2,23.9,30.10,East,90,2.2,2.9,32,0.00,,,0.00,WUHU216TE923,2013-04-09 22:27:00,
2013-04-09 15:32:00,52.9,22.8,30.10,ENE,68,2.2,3.6,31,0.00,,,0.00,WUHU216TE923,2013-04-09 22:32:00,
2013-04-09 15:37:00,53.1,23.0,30.10,NE,45,2.1,4.5,31,0.00,,,0.00,WUHU216TE923,2013-04-09 22:37:00,
2013-04-09 15:42:00,53.1,23.0,30.10,NE,45,2.1,4.5,31,0.00,,,0.00,WUHU216TE923,2013-04-09 22:42:00,
2013-04-09 15:47:00,53.1,23.0,30.10,NW,315,2.4,4.0,31,0.00,,,0.00,WUHU216TE923,2013-04-09 22:47:00,
2013-04-09 15:52:00,53.2,22.3,30.10,ENE,68,2.5,4.0,30,0.00,,,0.00,WUHU216TE923,2013-04-09 22:52:00,
2013-04-09 15:57:00,53.1,22.2,30.10,NE,45,2.7,3.0,30,0.00,,,0.00,WUHU216TE923,2013-04-09 22:57:00,
2013-04-09 16:02:00,53.1,22.2,30.09,NNE,23,2.6,2.7,30,0.00,,,0.00,WUHU216TE923,2013-04-09 23:02:00,
2013-04-09 16:07:00,53.1,23.0,30.09,NNW,338,2.2,3.1,31,0.00,,,0.00,WUHU216TE923,2013-04-09 23:07:00,
2013-04-09 16:12:00,53.4,23.3,30.09,NNE,23,1.8,3.1,31,0.00,,,0.00,WUHU216TE923,2013-04-09 23:12:00,
2013-04-09 16:17:00,53.6,22.7,30.09,East,90,2.0,2.3,30,0.00,,,0.00,WUHU216TE923,2013-04-09 23:17:00,
2013-04-09 16:22:00,53.4,22.5,30.09,NNE,23,2.6,3.3,30,0.00,,,0.00,WUHU216TE923,2013-04-09 23:22:00,
2013-04-09 16:27:00,53.6,22.7,30.09,NE,45,2.6,3.3,30,0.00,,,0.00,WUHU216TE923,2013-04-09 23:27:00,
2013-04-09 16:32:00,53.8,22.9,30.09,NNE,23,2.4,3.6,30,0.00,,,0.00,WUHU216TE923,2013-04-09 23:32:00,
2013-04-09 16:37:00,54.0,23.8,30.09,NNW,338,2.0,3.6,31,0.00,,,0.00,WUHU216TE923,2013-04-09 23:37:00,
2013-04-09 16:42:00,54.0,23.8,30.09,West,270,2.1,3.3,31,0.00,,,0.00,WUHU216TE923,2013-04-09 23:42:00,
2013-04-09 16:47:00,54.0,23.8,30.09,NNE,23,2.3,3.3,31,0.00,,,0.00,WUHU216TE923,2013-04-09 23:47:00,
2013-04-09 16:53:00,54.0,24.6,30.09,NNE,23,2.4,2.4,32,0.00,,,0.00,WUHU216TE923,2013-04-09 23:53:00,
2013-04-09 16:58:00,54.0,24.6,30.09,ENE,68,2.3,6.6,32,0.00,,,0.00,WUHU216TE923,2013-04-09 23:58:00,
2013-04-09 17:03:00,54.0,24.6,30.10,NNW,338,2.7,6.6,32,0.00,,,0.00,WUHU216TE923,2013-04-10 00:03:00,
2013-04-09 17:08:00,54.3,25.6,30.10,NNW,338,3.7,5.3,33,0.00,,,0.00,WUHU216TE923,2013-04-10 00:08:00,
2013-04-09 17:13:00,54.1,23.9,30.10,NNW,338,3.8,5.3,31,0.00,,,0.00,WUHU216TE923,2013-04-10 00:13:00,
2013-04-09 17:18:00,54.1,23.9,30.10,NNE,23,4.3,9.4,31,0.00,,,0.00,WUHU216TE923,2013-04-10 00:18:00,
2013-04-09 17:23:00,54.3,24.8,30.09,NNE,23,3.9,9.4,32,0.00,,,0.00,WUHU216TE923,2013-04-10 00:23:00,
2013-04-09 17:28:00,54.5,24.2,30.09,NE,45,3.4,4.2,31,0.00,,,0.00,WUHU216TE923,2013-04-10 00:28:00,
2013-04-09 17:33:00,54.7,25.2,30.09,NNW,338,4.0,5.9,32,0.00,,,0.00,WUHU216TE923,2013-04-10 00:33:00,
2013-04-09 17:38:00,54.5,25.0,30.09,NW,315,4.4,5.9,32,0.00,,,0.00,WUHU216TE923,2013-04-10 00:38:00,
2013-04-09 17:43:00,54.5,25.7,30.09,NW,315,4.0,5.8,33,0.00,,,0.00,WUHU216TE923,2013-04-10 00:43:00,
2013-04-09 17:48:00,54.1,26.8,30.09,NE,45,3.9,5.8,35,0.00,,,0.00,WUHU216TE923,2013-04-10 00:48:00,
2013-04-09 17:53:00,54.0,28.8,30.09,East,90,4.4,5.0,38,0.00,,,0.00,WUHU216TE923,2013-04-10 00:53:00,
2013-04-09 17:58:00,53.2,29.9,30.09,SW,225,4.6,5.0,41,0.00,,,0.00,WUHU216TE923,2013-04-10 00:58:00,
2013-04-09 18:03:00,52.9,29.7,30.10,West,270,4.3,5.8,41,0.00,,,0.00,WUHU216TE923,2013-04-10 01:03:00,
2013-04-09 18:08:00,52.3,30.9,30.10,NNE,23,4.7,7.0,44,0.00,,,0.00,WUHU216TE923,2013-04-10 01:08:00,
2013-04-09 18:13:00,52.2,30.8,30.10,NNE,23,4.4,7.0,44,0.00,,,0.00,WUHU216TE923,2013-04-10 01:13:00,
2013-04-09 18:18:00,51.8,31.0,30.10,NNW,338,4.0,6.7,45,0.00,,,0.00,WUHU216TE923,2013-04-10 01:18:00,
2013-04-09 18:23:00,51.6,31.4,30.09,NW,315,4.2,5.1,46,0.00,,,0.00,WUHU216TE923,2013-04-10 01:23:00,
2013-04-09 18:28:00,51.4,31.2,30.09,NE,45,4.7,5.4,46,0.00,,,0.00,WUHU216TE923,2013-04-10 01:28:00,
2013-04-09 18:33:00,51.3,31.1,30.09,NNW,338,4.5,5.4,46,0.00,,,0.00,WUHU216TE923,2013-04-10 01:33:00,
2013-04-09 18:38:00,51.1,31.5,30.09,NNW,338,3.8,8.2,47,0.00,,,0.00,WUHU216TE923,2013-04-10 01:38:00,
2013-04-09 18:43:00,50.7,31.1,30.09,SSW,203,3.4,8.2,47,0.00,,,0.00,WUHU216TE923,2013-04-10 01:43:00,
2013-04-09 18:48:00,50.5,30.9,30.09,NNW,338,3.1,4.2,47,0.00,,,0.00,WUHU216TE923,2013-04-10 01:48:00,
2013-04-09 18:53:00,50.4,31.4,30.09,NNE,23,2.8,4.4,48,0.00,,,0.00,WUHU216TE923,2013-04-10 01:53:00,
2013-04-09 18:58:00,50.2,31.2,30.09,NNE,23,2.4,4.4,48,0.00,,,0.00,WUHU216TE923,2013-04-10 01:58:00,
2013-04-09 19:03:00,50.0,31.0,30.09,NNE,23,2.1,3.2,48,0.00,,,0.00,WUHU216TE923,2013-04-10 02:03:00,
2013-04-09 19:08:00,49.8,31.4,30.09,NNE,23,1.8,2.6,49,0.00,,,0.00,WUHU216TE923,2013-04-10 02:08:00,
2013-04-09 19:13:00,49.6,31.2,30.09,NW,315,1.5,2.6,49,0.00,,,0.00,WUHU216TE923,2013-04-10 02:13:00,
2013-04-09 19:18:00,49.5,31.6,30.09,NNW,338,1.4,1.5,50,0.00,,,0.00,WUHU216TE923,2013-04-10 02:18:00,
2013-04-09 19:23:00,49.5,31.6,30.08,NW,315,1.3,3.0,50,0.00,,,0.00,WUHU216TE923,2013-04-10 02:23:00,
2013-04-09 19:28:00,49.3,31.4,30.08,NNE,23,1.0,3.0,50,0.00,,,0.00,WUHU216TE923,2013-04-10 02:28:00,
2013-04-09 19:33:00,49.1,31.7,30.08,NNW,338,1.2,2.3,51,0.00,,,0.00,WUHU216TE923,2013-04-10 02:33:00,
2013-04-09 19:38:00,48.9,31.5,30.08,NNW,338,1.6,2.6,51,0.00,,,0.00,WUHU216TE923,2013-04-10 02:38:00,
2013-04-09 19:43:00,48.9,32.0,30.09,NNW,338,1.9,2.6,52,0.00,,,0.00,WUHU216TE923,2013-04-10 02:43:00,
2013-04-09 19:48:00,48.6,31.8,30.09,NNE,23,1.5,2.1,52,0.00,,,0.00,WUHU216TE923,2013-04-10 02:48:00,
2013-04-09 19:53:00,48.4,32.1,30.09,NNE,23,1.5,2.4,53,0.00,,,0.00,WUHU216TE923,2013-04-10 02:53:00,
2013-04-09 19:58:00,48.2,31.9,30.09,NNE,23,1.6,2.4,53,0.00,,,0.00,WUHU216TE923,2013-04-10 02:58:00,
2013-04-09 20:03:00,48.2,32.4,30.10,NNW,338,1.2,2.2,54,0.00,,,0.00,WUHU216TE923,2013-04-10 03:03:00,
2013-04-09 20:08:00,47.8,32.4,30.10,NNW,338,1.1,2.8,55,0.00,,,0.00,WUHU216TE923,2013-04-10 03:08:00,
2013-04-09 20:13:00,47.8,32.4,30.10,NNW,338,1.1,2.8,55,0.00,,,0.00,WUHU216TE923,2013-04-10 03:13:00,
2013-04-09 20:18:00,47.7,32.4,30.10,SE,135,1.0,1.8,55,0.00,,,0.00,WUHU216TE923,2013-04-10 03:18:00,
2013-04-09 20:23:00,47.7,32.4,30.10,SE,135,1.0,1.8,55,0.00,,,0.00,WUHU216TE923,2013-04-10 03:23:00,
2013-04-09 20:28:00,47.3,32.4,30.10,WSW,248,0.5,0.8,56,0.00,,,0.00,WUHU216TE923,2013-04-10 03:28:00,
2013-04-09 20:33:00,47.3,32.4,30.10,WSW,248,0.5,0.8,56,0.00,,,0.00,WUHU216TE923,2013-04-10 03:33:00,
2013-04-09 20:38:00,46.9,32.5,30.09,NE,45,0.4,2.0,57,0.00,,,0.00,WUHU216TE923,2013-04-10 03:38:00,
2013-04-09 20:43:00,46.9,32.5,30.09,NE,45,0.4,2.0,57,0.00,,,0.00,WUHU216TE923,2013-04-10 03:43:00,
2013-04-09 20:48:00,46.9,32.5,30.09,NE,45,1.9,2.7,57,0.00,,,0.00,WUHU216TE923,2013-04-10 03:48:00,
2013-04-09 20:53:00,46.9,32.5,30.09,NE,45,1.9,2.7,57,0.00,,,0.00,WUHU216TE923,2013-04-10 03:53:00,
2013-04-09 20:58:00,46.8,32.4,30.10,NNW,338,1.7,1.9,57,0.00,,,0.00,WUHU216TE923,2013-04-10 03:58:00,
2013-04-09 21:03:00,46.8,32.4,30.10,NNW,338,1.7,1.9,57,0.00,,,0.00,WUHU216TE923,2013-04-10 04:03:00,
2013-04-09 21:08:00,46.6,32.7,30.10,NNW,338,1.6,2.5,58,0.00,,,0.00,WUHU216TE923,2013-04-10 04:08:00,
2013-04-09 21:13:00,46.6,32.7,30.10,NNW,338,1.6,2.5,58,0.00,,,0.00,WUHU216TE923,2013-04-10 04:13:00,
2013-04-09 21:18:00,46.2,32.3,30.11,North,0,1.8,2.9,58,0.00,,,0.00,WUHU216TE923,2013-04-10 04:18:00,
2013-04-09 21:23:00,46.2,32.3,30.11,North,0,1.8,2.9,58,0.00,,,0.00,WUHU216TE923,2013-04-10 04:23:00,
2013-04-09 21:28:00,46.0,32.5,30.11,NNW,338,1.5,1.8,59,0.00,,,0.00,WUHU216TE923,2013-04-10 04:28:00,
2013-04-09 21:33:00,46.0,32.5,30.11,NNW,338,1.5,1.8,59,0.00,,,0.00,WUHU216TE923,2013-04-10 04:33:00,
2013-04-09 21:38:00,45.9,32.4,30.11,NW,315,1.5,2.1,59,0.00,,,0.00,WUHU216TE923,2013-04-10 04:38:00,
2013-04-09 21:43:00,45.9,32.4,30.11,NW,315,1.5,2.1,59,0.00,,,0.00,WUHU216TE923,2013-04-10 04:43:00,
2013-04-09 21:48:00,45.9,32.4,30.11,WSW,248,1.9,3.5,59,0.00,,,0.00,WUHU216TE923,2013-04-10 04:48:00,
2013-04-09 21:53:00,45.9,32.4,30.11,WSW,248,1.9,3.5,59,0.00,,,0.00,WUHU216TE923,2013-04-10 04:53:00,
2013-04-09 21:58:00,45.7,32.3,30.12,WSW,248,1.6,1.8,59,0.00,,,0.00,WUHU216TE923,2013-04-10 04:58:00,
2013-04-09 22:03:00,45.7,32.3,30.12,WSW,248,1.6,1.8,59,0.00,,,0.00,WUHU216TE923,2013-04-10 05:03:00,
2013-04-09 22:08:00,45.5,32.1,30.12,West,270,0.3,1.2,59,0.00,,,0.00,WUHU216TE923,2013-04-10 05:08:00,
2013-04-09 22:13:00,45.5,32.1,30.12,West,270,0.3,1.2,59,0.00,,,0.00,WUHU216TE923,2013-04-10 05:13:00,
2013-04-09 22:18:00,45.0,32.0,30.12,WSW,248,0.4,1.7,60,0.00,,,0.00,WUHU216TE923,2013-04-10 05:18:00,
2013-04-09 22:23:00,45.0,32.0,30.12,WSW,248,0.4,1.7,60,0.00,,,0.00,WUHU216TE923,2013-04-10 05:23:00,
2013-04-09 22:28:00,44.8,32.2,30.12,WSW,248,0.7,2.4,61,0.00,,,0.00,WUHU216TE923,2013-04-10 05:28:00,
2013-04-09 22:33:00,44.8,32.2,30.12,WSW,248,0.7,2.4,61,0.00,,,0.00,WUHU216TE923,2013-04-10 05:33:00,
2013-04-09 22:38:00,45.1,32.5,30.12,SW,225,0.7,1.6,61,0.00,,,0.00,WUHU216TE923,2013-04-10 05:38:00,
2013-04-09 22:44:00,45.1,32.5,30.12,SW,225,0.7,1.6,61,0.00,,,0.00,WUHU216TE923,2013-04-10 05:44:00,
2013-04-09 22:49:00,45.5,33.3,30.12,SW,225,1.3,1.5,62,0.00,,,0.00,WUHU216TE923,2013-04-10 05:49:00,
2013-04-09 22:54:00,45.5,33.3,30.12,SW,225,1.3,1.5,62,0.00,,,0.00,WUHU216TE923,2013-04-10 05:54:00,
2013-04-09 22:59:00,45.7,33.5,30.12,South,180,1.7,3.5,62,0.00,,,0.00,WUHU216TE923,2013-04-10 05:59:00,
2013-04-09 23:04:00,45.7,33.5,30.12,South,180,1.7,3.5,62,0.00,,,0.00,WUHU216TE923,2013-04-10 06:04:00,
2013-04-09 23:09:00,45.9,33.7,30.12,WSW,248,3.6,5.8,62,0.00,,,0.00,WUHU216TE923,2013-04-10 06:09:00,
2013-04-09 23:14:00,45.9,33.7,30.12,WSW,248,3.6,5.8,62,0.00,,,0.00,WUHU216TE923,2013-04-10 06:14:00,
2013-04-09 23:19:00,45.5,32.9,30.11,SW,225,4.6,6.5,61,0.00,,,0.00,WUHU216TE923,2013-04-10 06:19:00,
2013-04-09 23:24:00,45.5,32.9,30.11,SW,225,4.6,6.5,61,0.00,,,0.00,WUHU216TE923,2013-04-10 06:24:00,
2013-04-09 23:29:00,45.3,32.7,30.11,SW,225,4.4,7.7,61,0.00,,,0.00,WUHU216TE923,2013-04-10 06:29:00,
2013-04-09 23:34:00,45.3,32.7,30.11,SW,225,4.4,7.7,61,0.00,,,0.00,WUHU216TE923,2013-04-10 06:34:00,
2013-04-09 23:39:00,45.1,32.5,30.10,SW,225,5.1,5.8,61,0.00,,,0.00,WUHU216TE923,2013-04-10 06:39:00,
2013-04-09 23:44:00,45.1,32.5,30.10,SW,225,5.1,5.8,61,0.00,,,0.00,WUHU216TE923,2013-04-10 06:44:00,
2013-04-09 23:49:00,45.0,32.8,30.10,South,180,5.5,11.8,62,0.00,,,0.00,WUHU216TE923,2013-04-10 06:49:00,
2013-04-09 23:54:00,45.0,32.8,30.10,South,180,5.5,11.8,62,0.00,,,0.00,WUHU216TE923,2013-04-10 06:54:00,
2013-04-09 23:59:00,44.8,32.2,30.10,SSW,203,5.8,9.6,61,0.00,,,0.00,WUHU216TE923,2013-04-10 06:59:00,